Aiken, Texas
Current Conditions -  °F | °C
As of 1:35 AM on Friday 31 Oct 2014 (Local Time) from KPVW Reporting Station
Clear Clear  
Wind Chill: 44°   Ceiling: Unl
Heat Index: 47°   Visibility: 10mi
Dew Point: 33°   Wind: 7mph
Humidity: 58%   Direction: 50°NE
Pressure: 30.34"   Gusts: NA
Location:  34.14°N, 101.53°W
Report Text: KPVW 310635Z AUTO 05006KT 10SM CLR 09/01 A3034 RMK AO2 T00850006 TSNO
Loading
Personal Weather Stations






























Interactive Weather Map
Tropical Storm Tracking
New forecast layout! Learn more

10-Day Weather Forecast

Advertisements
Track Severe Weather on mobile